• Join FlightAware (Why Join?)
  • Login
  • US Flag 
12:50PM EDT


 

Airport Tracker/Info


-or-


 

Live Flight TrackerFlight Track Log ✈ SWA3584 ✈ 11-Apr-2013 ✈ KMCO - KPHL

Flight Track Log - Related Links

Times and Time Zones

All times are in EDT time to prevent confusion due to time zone crossing. See the SWA3584 flight status page for this flight to view local times or setup timezone preferences in your user account.

Time Position Orientation Groundspeed Altitude Reporting Facility
EDT Latitude Longitude Course Direction KTS MPH feet Rate Location/Type
07:18AM 28.4000 -81.3000 168° South 163 188 800  Level Orlando TRACON
07:19AM 28.3333 -81.2833 168° South 197 227 4,300 2,580 Climbing Orlando TRACON
07:20AM 28.3000 -81.2333 127° Southeast 247 284 6,800 2,520 Climbing Orlando TRACON
07:21AM 28.3667 -81.2000 24° Northeast 278 320 9,400 2,160 Climbing Orlando TRACON
07:24AM 28.5589 -81.2547 346° North 344 396 14,200 2,280 Climbing Jacksonville Center
07:25AM 28.6553 -81.2814 346° North 350 403 17,300 2,940 Climbing Jacksonville Center
07:26AM 28.7600 -81.3033 350° North 361 415 20,100 2,520 Climbing Jacksonville Center
07:27AM 28.8625 -81.3303 347° North 371 427 22,400 2,160 Climbing Jacksonville Center
07:28AM 28.9692 -81.3569 348° North 381 438 24,500 1,800 Climbing Jacksonville Center
07:29AM 29.0822 -81.3861 347° North 392 451 26,000 1,980 Climbing Jacksonville Center
07:30AM 29.1953 -81.4011 353° North 398 458 28,500 1,860 Climbing Jacksonville Center
07:31AM 29.3100 -81.4114 356° North 409 471 29,800 2,040 Climbing Jacksonville Center
07:32AM 29.4356 -81.4236 355° North 409 471 32,600 2,460 Climbing Jacksonville Center
07:33AM 29.5442 -81.4339 355° North 397 457 34,800 1,800 Climbing Jacksonville Center
07:34AM 29.6508 -81.4444 355° North 390 449 36,200 1,080 Climbing Jacksonville Center
07:35AM 29.7572 -81.4547 355° North 385 443 37,000 360 Climbing Jacksonville Center
07:36AM 29.8639 -81.4653 355° North 385 443 37,000  Level Jacksonville Center
07:37AM 29.9725 -81.4756 355° North 385 443 37,000  Level Jacksonville Center
07:38AM 30.0833 -81.4858 355° North 390 449 37,000  Level Jacksonville Center
07:39AM 30.1900 -81.4939 356° North 390 449 37,000  Level Jacksonville Center
07:40AM 30.2986 -81.5067 354° North 390 449 37,000  Level Jacksonville Center
07:41AM 30.4072 -81.5028 North 390 449 37,000  Level Jacksonville Center
07:42AM 30.5156 -81.4964 North 390 449 37,000  Level Jacksonville Center
07:43AM 30.6242 -81.4875 North 385 443 37,000  Level Jacksonville Center
07:44AM 30.7303 -81.4642 11° North 385 443 37,000  Level Jacksonville Center
07:45AM 30.8319 -81.3997 29° Northeast 390 449 37,000  Level Jacksonville Center
07:46AM 30.9333 -81.3328 30° Northeast 402 463 37,000  Level Jacksonville Center
07:47AM 31.0369 -81.2656 29° Northeast 407 468 37,000  Level Jacksonville Center
07:48AM 31.1406 -81.2008 28° Northeast 419 482 37,000 -780 Level Jacksonville Center
07:49AM 31.2419 -81.1333 30° Northeast 414 476 35,500 -1,020 Descending Jacksonville Center
07:50AM 31.3475 -81.0656 29° Northeast 414 476 35,000 -660 Descending Jacksonville Center
07:51AM 31.4508 -80.9956 30° Northeast 414 476 34,200 -900 Descending Jacksonville Center
07:52AM 31.5564 -80.9300 28° Northeast 414 476 33,300 -600 Descending Jacksonville Center
07:53AM 31.6492 -80.8669 30° Northeast 414 476 33,000 -180 Descending Jacksonville Center
07:54AM 31.7628 -80.7936 29° Northeast 414 476 33,000  Level Jacksonville Center
07:55AM 31.8581 -80.7328 28° Northeast 421 484 33,000  Level Jacksonville Center
07:56AM 31.9694 -80.6567 30° Northeast 421 484 33,000  Level Jacksonville Center
07:57AM 32.0747 -80.5881 29° Northeast 421 484 33,000  Level Jacksonville Center
07:58AM 32.1675 -80.5267 29° Northeast 426 490 33,000 -60 Level Jacksonville Center
07:59AM 32.2725 -80.4578 29° Northeast 426 490 32,900  Descending Jacksonville Center
08:00AM 32.3736 -80.3886 30° Northeast 420 483 33,000  Climbing Jacksonville Center
08:01AM 32.4744 -80.3217 29° Northeast 420 483 32,900  Descending Jacksonville Center
08:02AM 32.5733 -80.2525 31° Northeast 410 472 33,000  Climbing Jacksonville Center
08:03AM 32.6742 -80.1878 28° Northeast 410 472 32,900  Descending Jacksonville Center
08:04AM 32.7728 -80.1206 30° Northeast 410 472 33,000  Climbing Jacksonville Center
08:05AM 32.8717 -80.0533 30° Northeast 410 472 33,000  Level Jacksonville Center
08:06AM 32.9656 -79.9686 37° Northeast 410 472 33,000 -60 Level Jacksonville Center
08:07AM 33.0575 -79.8814 38° Northeast 420 483 32,900  Descending Jacksonville Center
08:08AM 33.1575 -79.7836 39° Northeast 427 491 33,000  Climbing Jacksonville Center
08:09AM 33.2492 -79.6961 39° Northeast 427 491 32,900  Descending Jacksonville Center
08:10AM 33.3389 -79.6083 39° Northeast 421 484 33,000  Climbing Jacksonville Center
08:11AM 33.4303 -79.5203 39° Northeast 421 484 33,000  Level Jacksonville Center
08:12AM 33.5217 -79.4272 40° Northeast 416 479 33,000  Level Jacksonville Center
08:13AM 33.6131 -79.3389 39° Northeast 416 479 33,000  Level Jacksonville Center
08:14AM 33.7025 -79.2503 39° Northeast 416 479 33,000  Level Jacksonville Center
08:15AM 33.7897 -79.1642 39° Northeast 411 473 33,000  Level Jacksonville Center
08:16AM 33.8831 -79.0753 38° Northeast 418 481 33,000 -60 Level Jacksonville Center
08:18AM 34.0531 -78.9028 40° Northeast 415 478 32,900  Descending Washington Center
08:19AM 34.1453 -78.8139 39° Northeast 415 478 33,000  Climbing Washington Center
08:20AM 34.2353 -78.7219 40° Northeast 415 478 33,000  Level Washington Center
08:21AM 34.3272 -78.6297 40° Northeast 415 478 33,000  Level Washington Center
08:22AM 34.4192 -78.5400 39° Northeast 415 478 33,000  Level Washington Center
08:23AM 34.5092 -78.4475 40° Northeast 415 478 33,000  Level Washington Center
08:24AM 34.5989 -78.3547 40° Northeast 415 478 33,000 -60 Level Washington Center
08:25AM 34.6908 -78.2644 39° Northeast 415 478 32,900  Descending Washington Center
08:26AM 34.7803 -78.1714 41° Northeast 415 478 33,000  Climbing Washington Center
08:27AM 34.8681 -78.0753 42° Northeast 415 478 33,000  Level Washington Center
08:28AM 34.9597 -77.9792 41° Northeast 415 478 33,000  Level Washington Center
08:29AM 35.0592 -77.9061 31° Northeast 415 478 33,000  Level Washington Center
08:30AM 35.1586 -77.8278 33° Northeast 415 478 33,000  Level Washington Center
08:31AM 35.2561 -77.7517 33° Northeast 415 478 33,000  Level Washington Center
08:32AM 35.3575 -77.6753 32° Northeast 420 483 33,000  Level Washington Center
08:33AM 35.4569 -77.5964 33° Northeast 420 483 33,000  Level Washington Center
08:34AM 35.5564 -77.5197 32° Northeast 420 483 33,000  Level Washington Center
08:35AM 35.6556 -77.4403 33° Northeast 420 483 33,000  Level Washington Center
08:36AM 35.7550 -77.3606 33° Northeast 420 483 33,000  Level Washington Center
08:37AM 35.8519 -77.2833 33° Northeast 420 483 33,000  Level Washington Center
08:38AM 35.9533 -77.2033 33° Northeast 420 483 33,000  Level Washington Center
08:39AM 36.0544 -77.1181 34° Northeast 413 475 33,000 -960 Level Washington Center
08:40AM 36.1536 -77.0428 31° Northeast 413 475 31,100 -2,040 Descending Washington Center
08:41AM 36.2506 -76.9647 33° Northeast 413 475 29,000 -1,080 Descending Washington Center
08:42AM 36.3347 -76.8942 34° Northeast 407 468 29,000  Level Washington Center
08:43AM 36.4378 -76.8131 32° Northeast 420 483 29,000  Level Washington Center
08:44AM 36.5450 -76.7269 33° Northeast 433 498 29,000  Level Washington Center
08:45AM 36.6481 -76.6403 34° Northeast 438 504 29,000  Level Washington Center
08:46AM 36.7508 -76.5564 33° Northeast 438 504 29,000  Level Washington Center
08:47AM 36.8517 -76.4719 34° Northeast 438 504 29,000  Level Washington Center
08:48AM 36.9650 -76.3769 34° Northeast 445 512 29,000  Level Washington Center
08:49AM 37.0697 -76.2919 33° Northeast 445 512 29,000  Level Washington Center
08:50AM 37.1725 -76.2069 33° Northeast 445 512 29,000 -600 Level Washington Center
08:51AM 37.2708 -76.1319 31° Northeast 452 520 27,800 -1,440 Descending Washington Center
08:52AM 37.3778 -76.0414 34° Northeast 457 526 26,200 -1,260 Descending Washington Center
08:53AM 37.4886 -75.9503 33° Northeast 463 533 25,300 -660 Descending Washington Center
08:54AM 37.5972 -75.8564 34° Northeast 463 533 24,900 -240 Descending Washington Center
08:55AM 37.7017 -75.7678 34° Northeast 463 533 24,900  Level Washington Center
08:56AM 37.8061 -75.6839 32° Northeast 458 527 24,900 -300 Level Washington Center
08:57AM 37.9103 -75.5969 33° Northeast 453 521 24,300 -780 Descending Washington Center
08:58AM 38.0147 -75.5047 35° Northeast 458 527 23,400 -1,020 Descending Washington Center
08:59AM 38.1250 -75.4281 29° Northeast 458 527 22,300 -1,140 Descending Washington Center
09:00AM 38.2333 -75.3592 27° Northeast 437 503 21,200 -1,020 Descending Washington Center
09:01AM 38.3353 -75.2872 29° Northeast 422 486 20,300 -1,560 Descending Washington Center
09:03AM 38.5372 -75.1592 26° Northeast 399 459 16,600 -1,800 Descending Washington Center
09:04AM 38.6328 -75.1000 26° Northeast 388 447 15,000 -840 Descending Washington Center
09:05AM 38.7286 -75.0356 28° Northeast 388 447 15,000  Level Washington Center
09:06AM 38.8283 -74.9894 20° North 388 447 15,000 -480 Level Washington Center
09:07AM 38.9344 -74.9753 North 383 441 14,100 -960 Descending Washington Center
09:08AM 39.0386 -74.9556 North 378 435 13,100 -1,500 Descending Washington Center
09:09AM 39.2167 -74.9333 North 337 388 10,300 -1,620 Descending Philadelphia TRACON
09:10AM 39.2256 -74.9303 15° North 327 376 10,200 -720 Descending FAA TRACON SMA TRACON (SMA)
09:10AM 39.2592 -74.9253 North 311 358 9,900 -1,080 Descending FAA TRACON SMA TRACON (SMA)
09:10AM 39.2844 -74.9214 North 305 351 9,500 -1,080 Descending FAA TRACON SMA TRACON (SMA)
09:11AM 39.3094 -74.9172 North 297 342 9,200 -780 Descending FAA TRACON SMA TRACON (SMA)
09:11AM 39.3392 -74.9122 North 290 334 9,000 -300 Descending FAA TRACON SMA TRACON (SMA)
09:11AM 39.3628 -74.9089 North 284 327 9,000  Level FAA TRACON SMA TRACON (SMA)
09:12AM 39.3875 -74.9103 358° North 285 328 9,000  Level FAA TRACON SMA TRACON (SMA)
09:12AM 39.4181 -74.9219 344° North 297 342 9,000 -180 Level FAA TRACON SMA TRACON (SMA)
09:12AM 39.4403 -74.9289 346° North 299 344 8,900 -780 Descending FAA TRACON SMA TRACON (SMA)
09:13AM 39.4678 -74.9331 353° North 300 345 8,500 -1,380 Descending FAA TRACON SMA TRACON (SMA)
09:13AM 39.5000 -74.9372 354° North 294 338 8,000 -1,380 Descending FAA TRACON SMA TRACON (SMA)
09:13AM 39.5236 -74.9403 354° North 289 333 7,600 -1,380 Descending FAA TRACON SMA TRACON (SMA)
09:14AM 39.5536 -74.9450 353° North 279 321 7,100 -1,380 Descending FAA TRACON SMA TRACON (SMA)
09:14AM 39.5767 -74.9478 355° North 274 315 6,700 -900 Descending FAA TRACON SMA TRACON (SMA)
09:14AM 39.5983 -74.9503 355° North 272 313 6,500 -600 Descending FAA TRACON SMA TRACON (SMA)
09:15AM 39.6289 -74.9544 354° North 277 319 6,300 -660 Descending FAA TRACON SMA TRACON (SMA)
09:15AM 39.6536 -74.9583 353° North 282 325 6,100 -900 Descending FAA TRACON SMA TRACON (SMA)
09:15AM 39.6756 -74.9669 343° North 270 311 5,700 -1,500 Descending FAA TRACON SMA TRACON (SMA)
09:16AM 39.6989 -74.9764 343° North 272 313 5,100 -1,980 Descending FAA TRACON SMA TRACON (SMA)
09:16AM 39.7264 -74.9886 341° North 273 314 4,400 -1,800 Descending FAA TRACON SMA TRACON (SMA)
09:16AM 39.7486 -74.9983 341° North 274 315 3,900 -1,380 Descending FAA TRACON SMA TRACON (SMA)
09:17AM 39.7756 -75.0103 341° North 269 310 3,500 -1,200 Descending FAA TRACON SMA TRACON (SMA)
09:17AM 39.7956 -75.0200 340° North 255 293 3,100 -1,080 Descending FAA TRACON SMA TRACON (SMA)
09:17AM 39.8158 -75.0300 339° North 253 291 2,800 -900 Descending FAA TRACON SMA TRACON (SMA)
09:18AM 39.8394 -75.0425 338° Northwest 241 277 2,500 -600 Descending FAA TRACON SMA TRACON (SMA)
09:18AM 39.8547 -75.0564 325° Northwest 229 264 2,400 -480 Descending FAA TRACON SMA TRACON (SMA)
09:18AM 39.8683 -75.0772 310° West 200 230 2,200 -660 Descending FAA TRACON SMA TRACON (SMA)
09:19AM 39.8772 -75.0967 301° West 179 206 2,000 -660 Descending FAA TRACON SMA TRACON (SMA)
09:19AM 39.8833 -75.1133 296° West 173 199 1,800 -900 Descending FAA TRACON SMA TRACON (SMA)
09:19AM 39.8881 -75.1308 289° West 138 159 1,400 -900 Descending FAA TRACON SMA TRACON (SMA)
09:20AM 39.8897 -75.1475 277° West 140 161 1,200 -480 Descending FAA TRACON SMA TRACON (SMA)
09:20AM 39.8878 -75.1619 260° West 143 165 1,100 -300 Descending FAA TRACON SMA TRACON (SMA)